Time;durP1;ratioP1;P1;durP2;ratioP2;P2;SDS_P1;SDS_P2;PMS_P1;PMS_P2;Temp;Humidity;BMP_temperature;BMP_pressure;BME280_temperature;BME280_humidity;BME280_pressure;Samples;Min_cycle;Max_cycle;Signal;HPM_P1;HPM_P2
2021/05/22 00:02:11;;;;;;;1.03;0.43;;;;;;;;;;4936407;29;20425;-71
2021/05/22 00:04:37;;;;;;;2.97;0.50;;;;;;;;;;4953398;29;20574;-71
2021/05/22 00:07:04;;;;;;;0.60;0.47;;;;;;;;;;4953748;29;20923;-72
2021/05/22 00:12:34;;;;;;;0.97;0.67;;;;;;;;;;4953656;29;20921;-72
2021/05/22 00:15:01;;;;;;;0.90;0.57;;;;;;;;;;4953904;29;20510;-72
2021/05/22 00:17:27;;;;;;;0.57;0.43;;;;;;;;;;4953477;28;20540;-71
2021/05/22 00:19:53;;;;;;;0.77;0.60;;;;;;;;;;4956715;29;20574;-72
2021/05/22 00:22:19;;;;;;;0.70;0.53;;;;;;;;;;4957378;29;20890;-72
2021/05/22 00:24:45;;;;;;;0.53;0.40;;;;;;;;;;4957625;29;20428;-72
2021/05/22 00:27:11;;;;;;;1.07;0.57;;;;;;;;;;4957289;29;20457;-72
2021/05/22 00:29:37;;;;;;;1.00;0.43;;;;;;;;;;4956985;29;20425;-72
2021/05/22 00:32:03;;;;;;;1.27;0.40;;;;;;;;;;4956943;29;20552;-72
2021/05/22 00:34:29;;;;;;;0.80;0.50;;;;;;;;;;4956915;29;20424;-71
2021/05/22 00:36:55;;;;;;;0.70;0.70;;;;;;;;;;4957011;29;20422;-72
2021/05/22 00:42:25;;;;;;;0.40;0.40;;;;;;;;;;4956772;29;20467;-72
2021/05/22 00:45:06;;;;;;;2.17;0.60;;;;;;;;;;4939598;29;20934;-71
2021/05/22 00:47:33;;;;;;;0.80;0.50;;;;;;;;;;4956810;29;20426;-72
2021/05/22 00:49:59;;;;;;;0.70;0.60;;;;;;;;;;4956566;29;20404;-71
2021/05/22 00:52:25;;;;;;;0.93;0.60;;;;;;;;;;4956918;29;20434;-73
2021/05/22 00:54:51;;;;;;;1.03;0.77;;;;;;;;;;4956660;29;20416;-72
2021/05/22 00:57:18;;;;;;;0.63;0.50;;;;;;;;;;4956559;29;20471;-71
2021/05/22 00:59:44;;;;;;;1.13;0.70;;;;;;;;;;4956540;29;20470;-72
2021/05/22 01:02:11;;;;;;;1.43;0.50;;;;;;;;;;4939605;29;20985;-71
2021/05/22 01:04:37;;;;;;;1.83;0.80;;;;;;;;;;4956014;29;20475;-71
2021/05/22 01:07:03;;;;;;;1.40;0.50;;;;;;;;;;4956726;29;20420;-71
2021/05/22 01:12:35;;;;;;;1.23;0.37;;;;;;;;;;4956278;29;20455;-71
2021/05/22 01:15:04;;;;;;;1.00;0.60;;;;;;;;;;4956387;29;20408;-72
2021/05/22 01:17:31;;;;;;;0.77;0.50;;;;;;;;;;4956567;29;20420;-72
2021/05/22 01:20:16;;;;;;;1.23;0.57;;;;;;;;;;4956064;29;20582;-72
2021/05/22 01:22:45;;;;;;;2.03;0.67;;;;;;;;;;4956447;29;20420;-72
2021/05/22 01:25:25;;;;;;;1.93;0.60;;;;;;;;;;4956394;29;20482;-72
2021/05/22 01:27:51;;;;;;;1.33;0.70;;;;;;;;;;4956071;29;20416;-72
2021/05/22 01:30:18;;;;;;;1.27;1.23;;;;;;;;;;4956312;28;20419;-72
2021/05/22 01:32:44;;;;;;;1.43;0.70;;;;;;;;;;4955899;29;20415;-73
2021/05/22 01:35:11;;;;;;;0.50;0.30;;;;;;;;;;4938408;29;20431;-71
2021/05/22 01:37:37;;;;;;;0.50;0.50;;;;;;;;;;4955806;29;20510;-72
2021/05/22 01:40:04;;;;;;;0.57;0.53;;;;;;;;;;4955978;29;20554;-73
2021/05/22 01:42:30;;;;;;;2.07;0.50;;;;;;;;;;4955777;29;20443;-71
2021/05/22 01:44:57;;;;;;;1.00;0.50;;;;;;;;;;4955649;29;20896;-71
2021/05/22 01:47:23;;;;;;;1.80;0.60;;;;;;;;;;4955816;29;20506;-73
2021/05/22 01:49:51;;;;;;;0.97;0.60;;;;;;;;;;4938382;29;20486;-72
2021/05/22 01:52:18;;;;;;;0.87;0.57;;;;;;;;;;4955769;29;20427;-72
2021/05/22 01:57:47;;;;;;;0.93;0.63;;;;;;;;;;4955697;29;20487;-72
2021/05/22 02:00:17;;;;;;;1.47;0.93;;;;;;;;;;4955590;29;20471;-72
2021/05/22 02:02:55;;;;;;;1.00;0.70;;;;;;;;;;4954954;29;20738;-72
2021/05/22 02:05:23;;;;;;;0.60;0.50;;;;;;;;;;4954917;29;20580;-72
2021/05/22 02:07:49;;;;;;;4.47;0.90;;;;;;;;;;4955325;29;20439;-71
2021/05/22 02:10:16;;;;;;;0.77;0.50;;;;;;;;;;4955319;29;20416;-73
2021/05/22 02:12:42;;;;;;;1.77;0.70;;;;;;;;;;4955361;29;20413;-72
2021/05/22 02:15:11;;;;;;;1.10;0.80;;;;;;;;;;4955291;29;20519;-73
2021/05/22 02:17:37;;;;;;;0.80;0.60;;;;;;;;;;4955140;29;20420;-72
2021/05/22 02:20:04;;;;;;;1.73;0.67;;;;;;;;;;4954844;29;20768;-73
2021/05/22 02:22:31;;;;;;;1.03;0.67;;;;;;;;;;4937778;29;20526;-73
2021/05/22 02:28:04;;;;;;;1.10;0.70;;;;;;;;;;4954916;29;20470;-72
2021/05/22 02:30:30;;;;;;;1.23;1.13;;;;;;;;;;4954716;29;20420;-71
2021/05/22 02:32:57;;;;;;;2.00;0.60;;;;;;;;;;4954778;29;20490;-72
2021/05/22 02:35:24;;;;;;;1.20;0.70;;;;;;;;;;4954696;29;20445;-72
2021/05/22 02:37:52;;;;;;;2.40;0.93;;;;;;;;;;4954656;29;20427;-72
2021/05/22 02:40:20;;;;;;;1.37;0.70;;;;;;;;;;4937257;29;20478;-71
2021/05/22 02:42:51;;;;;;;3.10;0.70;;;;;;;;;;4937178;29;20861;-72
2021/05/22 02:45:18;;;;;;;2.07;0.80;;;;;;;;;;4954840;29;20783;-73
2021/05/22 02:47:45;;;;;;;3.17;0.63;;;;;;;;;;4954500;29;20464;-71
2021/05/22 02:50:11;;;;;;;1.07;0.73;;;;;;;;;;4954477;29;20506;-72
2021/05/22 02:52:39;;;;;;;1.93;1.00;;;;;;;;;;4954760;29;20509;-73
2021/05/22 02:58:08;;;;;;;1.47;1.00;;;;;;;;;;4954514;29;20418;-72
2021/05/22 03:00:34;;;;;;;0.90;0.63;;;;;;;;;;4954599;29;20430;-72
2021/05/22 03:03:01;;;;;;;0.77;0.70;;;;;;;;;;4954202;29;20503;-71
2021/05/22 03:05:27;;;;;;;1.37;0.70;;;;;;;;;;4954309;29;20515;-71
2021/05/22 03:07:53;;;;;;;2.30;1.10;;;;;;;;;;4954380;29;20471;-72
2021/05/22 03:10:19;;;;;;;2.03;0.57;;;;;;;;;;4954449;29;20428;-73
2021/05/22 03:12:45;;;;;;;2.57;1.00;;;;;;;;;;4954255;29;20486;-73
2021/05/22 03:15:11;;;;;;;1.10;0.93;;;;;;;;;;4954415;29;20435;-72
2021/05/22 03:17:37;;;;;;;0.80;0.70;;;;;;;;;;4954078;29;20435;-72
2021/05/22 03:20:07;;;;;;;0.80;0.80;;;;;;;;;;4953927;29;20478;-71
2021/05/22 03:22:33;;;;;;;2.30;1.20;;;;;;;;;;4937264;29;20438;-71
2021/05/22 03:28:02;;;;;;;3.10;0.70;;;;;;;;;;4954311;29;20464;-72
2021/05/22 03:30:28;;;;;;;1.00;0.63;;;;;;;;;;4936932;29;20801;-72
2021/05/22 03:32:54;;;;;;;4.23;0.90;;;;;;;;;;4954111;29;20411;-71
2021/05/22 03:35:20;;;;;;;1.23;1.00;;;;;;;;;;4954135;29;20423;-71
2021/05/22 03:37:46;;;;;;;1.43;0.70;;;;;;;;;;4954304;29;20462;-71
2021/05/22 03:43:15;;;;;;;0.67;0.50;;;;;;;;;;4953969;29;20454;-72
2021/05/22 03:45:41;;;;;;;2.23;0.73;;;;;;;;;;4954014;29;20449;-71
2021/05/22 03:48:08;;;;;;;1.00;1.00;;;;;;;;;;4953932;29;20419;-72
2021/05/22 03:50:34;;;;;;;0.93;0.40;;;;;;;;;;4953906;29;20407;-71
2021/05/22 03:53:00;;;;;;;1.33;0.40;;;;;;;;;;4954553;28;20419;-71
2021/05/22 03:55:26;;;;;;;0.80;0.60;;;;;;;;;;4957775;29;20450;-71
2021/05/22 03:57:52;;;;;;;4.27;0.90;;;;;;;;;;4958022;29;20419;-71
2021/05/22 04:00:18;;;;;;;1.50;0.73;;;;;;;;;;4957456;29;20475;-70
2021/05/22 04:02:44;;;;;;;2.70;1.23;;;;;;;;;;4957348;29;20503;-72
2021/05/22 04:05:10;;;;;;;0.83;0.70;;;;;;;;;;4957337;28;20484;-71
2021/05/22 04:07:36;;;;;;;1.73;0.80;;;;;;;;;;4957778;29;20544;-72
2021/05/22 04:13:06;;;;;;;0.87;0.70;;;;;;;;;;4957524;29;20452;-71
2021/05/22 04:15:32;;;;;;;1.67;0.60;;;;;;;;;;4957461;29;20407;-72
2021/05/22 04:17:58;;;;;;;1.53;0.80;;;;;;;;;;4957608;29;20454;-71
2021/05/22 04:20:24;;;;;;;1.13;0.93;;;;;;;;;;4957385;29;20482;-71
2021/05/22 04:22:50;;;;;;;2.30;0.60;;;;;;;;;;4957316;29;21001;-70
2021/05/22 04:28:19;;;;;;;2.67;0.70;;;;;;;;;;4957294;29;20426;-72
2021/05/22 04:30:45;;;;;;;0.70;0.40;;;;;;;;;;4957271;29;20408;-72
2021/05/22 04:33:11;;;;;;;1.13;0.70;;;;;;;;;;4957156;29;20830;-72
2021/05/22 04:35:37;;;;;;;1.40;0.77;;;;;;;;;;4956990;29;20462;-71
2021/05/22 04:38:03;;;;;;;1.67;0.53;;;;;;;;;;4957027;29;20419;-72
2021/05/22 04:43:33;;;;;;;1.10;0.43;;;;;;;;;;4957046;29;20992;-71
2021/05/22 04:45:59;;;;;;;0.93;0.50;;;;;;;;;;4956832;29;20412;-71
2021/05/22 04:48:25;;;;;;;0.80;0.60;;;;;;;;;;4957047;29;20443;-71
2021/05/22 04:50:51;;;;;;;1.13;0.57;;;;;;;;;;4956938;29;20836;-72
2021/05/22 04:53:17;;;;;;;2.10;0.80;;;;;;;;;;4957008;29;20415;-72
2021/05/22 04:55:43;;;;;;;2.87;0.80;;;;;;;;;;4956776;29;20499;-72
2021/05/22 04:58:09;;;;;;;0.93;0.53;;;;;;;;;;4956913;29;20414;-71
2021/05/22 05:00:35;;;;;;;0.97;0.47;;;;;;;;;;4957015;29;20431;-72
2021/05/22 05:03:01;;;;;;;1.13;0.40;;;;;;;;;;4956440;29;20518;-72
2021/05/22 05:05:27;;;;;;;2.87;0.50;;;;;;;;;;4955936;28;20597;-72
2021/05/22 05:07:53;;;;;;;2.13;0.50;;;;;;;;;;4956656;29;20875;-72
2021/05/22 05:13:23;;;;;;;5.23;0.70;;;;;;;;;;4956395;29;20417;-71
2021/05/22 05:15:49;;;;;;;2.97;1.17;;;;;;;;;;4956333;29;20417;-72
2021/05/22 05:18:15;;;;;;;1.63;0.60;;;;;;;;;;4956386;29;20418;-71
2021/05/22 05:20:41;;;;;;;1.60;0.60;;;;;;;;;;4956144;29;20479;-72
2021/05/22 05:23:06;;;;;;;1.03;0.77;;;;;;;;;;4956365;29;20779;-72
2021/05/22 05:28:36;;;;;;;0.83;0.40;;;;;;;;;;4956173;29;20955;-72
2021/05/22 05:31:02;;;;;;;1.67;0.80;;;;;;;;;;4956212;29;20515;-72
2021/05/22 05:33:28;;;;;;;1.13;0.87;;;;;;;;;;4956012;29;20903;-72
2021/05/22 05:35:55;;;;;;;1.27;0.67;;;;;;;;;;4955904;29;20489;-71
2021/05/22 05:38:20;;;;;;;0.60;0.60;;;;;;;;;;4956165;29;20815;-73
2021/05/22 05:40:47;;;;;;;2.30;0.67;;;;;;;;;;4955816;29;20431;-72
2021/05/22 05:43:14;;;;;;;1.70;0.97;;;;;;;;;;4955786;29;20811;-71
2021/05/22 05:45:40;;;;;;;1.67;1.00;;;;;;;;;;4955342;29;20486;-73
2021/05/22 05:48:06;;;;;;;1.33;0.60;;;;;;;;;;4955043;29;20446;-74
2021/05/22 05:50:32;;;;;;;1.90;0.73;;;;;;;;;;4954599;29;20423;-72
2021/05/22 05:52:58;;;;;;;3.03;0.80;;;;;;;;;;4954911;29;20530;-72
2021/05/22 05:58:28;;;;;;;2.50;1.40;;;;;;;;;;4955211;29;20519;-73
2021/05/22 06:00:54;;;;;;;1.80;0.80;;;;;;;;;;4955674;29;20455;-73
2021/05/22 06:03:27;;;;;;;1.50;0.90;;;;;;;;;;4955521;29;20412;-74
2021/05/22 06:05:53;;;;;;;1.20;1.00;;;;;;;;;;4955023;28;20502;-73
2021/05/22 06:08:20;;;;;;;2.27;1.30;;;;;;;;;;4955270;29;20467;-72
2021/05/22 06:13:49;;;;;;;1.67;1.00;;;;;;;;;;4955499;29;20418;-73
2021/05/22 06:16:22;;;;;;;2.37;1.07;;;;;;;;;;4954958;28;20416;-71
2021/05/22 06:18:48;;;;;;;1.80;0.87;;;;;;;;;;4955462;29;20957;-72
2021/05/22 06:21:15;;;;;;;2.10;1.37;;;;;;;;;;4955205;29;20511;-73
2021/05/22 06:23:41;;;;;;;1.70;1.00;;;;;;;;;;4955784;29;20419;-74
2021/05/22 06:26:07;;;;;;;1.83;1.33;;;;;;;;;;4955314;29;20430;-74
2021/05/22 06:28:33;;;;;;;2.87;1.90;;;;;;;;;;4955098;29;20895;-74
2021/05/22 06:31:05;;;;;;;2.50;0.83;;;;;;;;;;4955075;29;20421;-72
2021/05/22 06:33:31;;;;;;;5.40;1.40;;;;;;;;;;4954299;29;20419;-72
2021/05/22 06:35:57;;;;;;;3.60;1.20;;;;;;;;;;4954482;29;20419;-72
2021/05/22 06:38:23;;;;;;;3.20;1.00;;;;;;;;;;4954841;29;20458;-72
2021/05/22 06:43:52;;;;;;;1.30;0.93;;;;;;;;;;4955233;29;20430;-74
2021/05/22 06:48:44;;;;;;;2.77;1.20;;;;;;;;;;4955618;29;20447;-73
2021/05/22 06:51:10;;;;;;;4.70;1.00;;;;;;;;;;4955148;29;20778;-72
2021/05/22 06:53:36;;;;;;;4.63;1.07;;;;;;;;;;4954754;29;20927;-74
2021/05/22 06:59:09;;;;;;;1.90;1.20;;;;;;;;;;4954727;29;20517;-73
2021/05/22 07:01:35;;;;;;;3.53;1.93;;;;;;;;;;4954700;29;20423;-72
2021/05/22 07:04:01;;;;;;;1.27;1.13;;;;;;;;;;4937304;29;20948;-73
2021/05/22 07:06:27;;;;;;;2.03;1.03;;;;;;;;;;4954539;29;20487;-73
2021/05/22 07:08:56;;;;;;;0.90;0.80;;;;;;;;;;4937508;29;20447;-73
2021/05/22 07:11:26;;;;;;;2.97;1.30;;;;;;;;;;4954954;29;20419;-73
2021/05/22 07:13:52;;;;;;;5.60;1.60;;;;;;;;;;4954629;29;20524;-73
2021/05/22 07:16:18;;;;;;;2.60;0.90;;;;;;;;;;4953743;29;20828;-73
2021/05/22 07:18:44;;;;;;;2.80;0.80;;;;;;;;;;4954768;29;20467;-73
2021/05/22 07:21:10;;;;;;;1.47;1.00;;;;;;;;;;4936569;29;20451;-72
2021/05/22 07:23:36;;;;;;;3.47;1.00;;;;;;;;;;4954250;29;20423;-73
2021/05/22 07:29:06;;;;;;;3.20;1.50;;;;;;;;;;4954679;29;20462;-73
2021/05/22 07:31:32;;;;;;;3.50;0.80;;;;;;;;;;4955004;29;20910;-72
2021/05/22 07:33:58;;;;;;;3.23;0.80;;;;;;;;;;4954567;29;20533;-73
2021/05/22 07:36:24;;;;;;;3.40;1.07;;;;;;;;;;4954488;29;20407;-73
2021/05/22 07:38:50;;;;;;;2.20;1.13;;;;;;;;;;4953678;29;20478;-72
2021/05/22 07:44:20;;;;;;;1.23;0.90;;;;;;;;;;4954309;29;20413;-73
2021/05/22 07:46:46;;;;;;;5.77;1.40;;;;;;;;;;4954531;29;20411;-72
2021/05/22 07:49:12;;;;;;;2.60;1.27;;;;;;;;;;4954650;29;20427;-74
2021/05/22 07:51:40;;;;;;;1.90;0.97;;;;;;;;;;4954678;29;20426;-73
2021/05/22 07:54:06;;;;;;;3.30;0.80;;;;;;;;;;4954548;29;20830;-73
2021/05/22 07:59:36;;;;;;;0.83;0.70;;;;;;;;;;4954373;29;20832;-73
2021/05/22 08:02:02;;;;;;;0.83;0.60;;;;;;;;;;4954765;29;20792;-73
2021/05/22 08:04:28;;;;;;;1.90;0.77;;;;;;;;;;4953523;28;20475;-77
2021/05/22 08:06:54;;;;;;;6.27;1.20;;;;;;;;;;4954426;29;20428;-75
2021/05/22 08:09:20;;;;;;;2.50;1.00;;;;;;;;;;4954098;29;20439;-74
2021/05/22 08:11:46;;;;;;;1.47;0.60;;;;;;;;;;4954238;29;20459;-72
2021/05/22 08:14:12;;;;;;;2.10;0.90;;;;;;;;;;4954021;29;20428;-73
2021/05/22 08:16:38;;;;;;;7.23;1.03;;;;;;;;;;4954052;29;20470;-75
2021/05/22 08:19:05;;;;;;;0.80;0.70;;;;;;;;;;4954321;29;20786;-75
2021/05/22 08:21:31;;;;;;;1.53;0.80;;;;;;;;;;4954252;29;20613;-72
2021/05/22 08:23:57;;;;;;;2.80;1.30;;;;;;;;;;4954011;29;20426;-73
2021/05/22 08:29:27;;;;;;;1.57;0.93;;;;;;;;;;4954006;29;20422;-73
2021/05/22 08:31:53;;;;;;;4.43;0.90;;;;;;;;;;4936476;29;20462;-73
2021/05/22 08:34:19;;;;;;;1.40;0.90;;;;;;;;;;4953780;29;20498;-72
2021/05/22 08:36:45;;;;;;;2.53;1.30;;;;;;;;;;4953847;29;20444;-73
2021/05/22 08:39:11;;;;;;;0.87;0.60;;;;;;;;;;4954253;28;20874;-74
2021/05/22 08:44:41;;;;;;;1.60;0.60;;;;;;;;;;4957256;29;20517;-72
2021/05/22 08:47:08;;;;;;;3.20;1.07;;;;;;;;;;4957238;29;20431;-73
2021/05/22 08:49:40;;;;;;;0.80;0.53;;;;;;;;;;4956600;29;20408;-72
2021/05/22 08:52:08;;;;;;;1.60;0.77;;;;;;;;;;4957358;29;20419;-74
2021/05/22 08:54:34;;;;;;;1.57;0.67;;;;;;;;;;4957236;29;20414;-73
2021/05/22 09:00:10;;;;;;;1.23;0.80;;;;;;;;;;4957297;29;20490;-74
2021/05/22 09:02:37;;;;;;;3.07;0.90;;;;;;;;;;4956808;29;20936;-73
2021/05/22 09:05:15;;;;;;;1.33;0.70;;;;;;;;;;4938984;29;20562;-72
2021/05/22 09:08:00;;;;;;;2.10;0.70;;;;;;;;;;4956485;29;20506;-73
2021/05/22 09:10:27;;;;;;;2.80;0.80;;;;;;;;;;4956817;29;20922;-73
2021/05/22 09:12:55;;;;;;;4.20;1.20;;;;;;;;;;4956739;29;20902;-72
2021/05/22 09:15:22;;;;;;;0.93;0.73;;;;;;;;;;4956594;29;20567;-73
2021/05/22 09:17:53;;;;;;;1.80;0.73;;;;;;;;;;4939606;29;20477;-73
2021/05/22 09:20:18;;;;;;;2.60;0.80;;;;;;;;;;4956285;29;20471;-73
2021/05/22 09:22:45;;;;;;;1.27;0.57;;;;;;;;;;4956410;29;20411;-71
2021/05/22 09:25:11;;;;;;;2.13;0.90;;;;;;;;;;4954130;29;20778;-72
2021/05/22 09:27:39;;;;;;;4.40;1.10;;;;;;;;;;4954859;29;20400;-72
2021/05/22 09:30:06;;;;;;;4.10;0.73;;;;;;;;;;4955342;29;20450;-71
2021/05/22 09:32:32;;;;;;;2.60;0.60;;;;;;;;;;4955623;29;20440;-71
2021/05/22 09:34:58;;;;;;;4.17;0.90;;;;;;;;;;4938839;29;20570;-74
2021/05/22 09:37:24;;;;;;;1.37;0.50;;;;;;;;;;4956290;29;20412;-72
2021/05/22 09:39:52;;;;;;;2.50;0.90;;;;;;;;;;4953992;29;20503;-72
2021/05/22 09:45:30;;;;;;;4.50;1.10;;;;;;;;;;4955148;29;20441;-71
2021/05/22 09:47:59;;;;;;;4.53;1.27;;;;;;;;;;4955281;29;20510;-71
2021/05/22 09:50:41;;;;;;;2.20;1.30;;;;;;;;;;4954450;28;20973;-73
2021/05/22 09:53:25;;;;;;;1.80;0.77;;;;;;;;;;4937965;29;20977;-72
2021/05/22 09:56:10;;;;;;;5.50;0.90;;;;;;;;;;4955007;29;20435;-71
2021/05/22 09:58:37;;;;;;;3.90;1.13;;;;;;;;;;4954692;29;20427;-71
2021/05/22 10:01:03;;;;;;;2.77;0.70;;;;;;;;;;4954713;29;20427;-71
2021/05/22 10:03:29;;;;;;;0.67;0.53;;;;;;;;;;4954929;29;20914;-73
2021/05/22 10:05:55;;;;;;;2.23;0.77;;;;;;;;;;4954603;29;20471;-72
2021/05/22 10:08:21;;;;;;;5.07;0.90;;;;;;;;;;4954885;29;20486;-74
2021/05/22 10:10:49;;;;;;;4.10;1.33;;;;;;;;;;4954603;29;20403;-72
2021/05/22 10:13:16;;;;;;;2.83;1.00;;;;;;;;;;4937542;29;20431;-72
2021/05/22 10:15:43;;;;;;;2.00;0.80;;;;;;;;;;4954806;29;20459;-71
2021/05/22 10:18:10;;;;;;;1.43;1.33;;;;;;;;;;4954500;29;20424;-71
2021/05/22 10:20:36;;;;;;;1.17;0.70;;;;;;;;;;4954756;29;20479;-72
2021/05/22 10:23:02;;;;;;;5.83;0.93;;;;;;;;;;4954403;29;20475;-70
2021/05/22 10:25:28;;;;;;;1.00;0.60;;;;;;;;;;4954315;29;20483;-72
2021/05/22 10:27:54;;;;;;;1.73;0.80;;;;;;;;;;4954618;29;20415;-72
2021/05/22 10:30:21;;;;;;;2.47;0.83;;;;;;;;;;4954655;29;20423;-72
2021/05/22 10:32:47;;;;;;;1.47;0.73;;;;;;;;;;4954506;29;20452;-72
2021/05/22 10:35:17;;;;;;;3.23;0.80;;;;;;;;;;4954505;29;20486;-71
2021/05/22 10:37:50;;;;;;;0.80;0.57;;;;;;;;;;4954544;29;20416;-70
2021/05/22 10:46:06;;;;;;;4.13;1.10;;;;;;;;;;4954378;29;20411;-73
2021/05/22 10:48:32;;;;;;;3.37;1.30;;;;;;;;;;4937781;29;20474;-71
2021/05/22 10:50:59;;;;;;;1.43;0.90;;;;;;;;;;4954793;29;20459;-71
2021/05/22 10:53:48;;;;;;;2.40;1.00;;;;;;;;;;4955071;29;20778;-73
2021/05/22 10:56:18;;;;;;;2.70;0.63;;;;;;;;;;4954889;29;20435;-72
2021/05/22 10:58:59;;;;;;;2.37;0.70;;;;;;;;;;4954797;29;20459;-71
2021/05/22 11:01:30;;;;;;;0.73;0.60;;;;;;;;;;4954823;28;20917;-71
2021/05/22 11:04:11;;;;;;;3.30;1.37;;;;;;;;;;4954527;29;20486;-72
2021/05/22 11:06:47;;;;;;;4.83;0.77;;;;;;;;;;4955114;29;20427;-72
2021/05/22 11:09:26;;;;;;;3.67;1.30;;;;;;;;;;4954703;29;20458;-72
2021/05/22 11:11:52;;;;;;;2.40;0.70;;;;;;;;;;4954879;29;20419;-71
2021/05/22 11:14:37;;;;;;;1.73;0.70;;;;;;;;;;4954622;29;20403;-72
2021/05/22 11:17:29;;;;;;;1.73;0.60;;;;;;;;;;4954924;29;20415;-72
2021/05/22 11:20:01;;;;;;;1.17;0.50;;;;;;;;;;4954656;29;20562;-71
2021/05/22 11:22:39;;;;;;;2.07;0.90;;;;;;;;;;4953686;29;20422;-72
2021/05/22 11:25:09;;;;;;;1.83;0.90;;;;;;;;;;4954815;29;20431;-71
2021/05/22 11:30:13;;;;;;;1.37;0.50;;;;;;;;;;4954980;29;20427;-72
2021/05/22 11:33:17;;;;;;;1.33;0.60;;;;;;;;;;4954893;29;20437;-73
2021/05/22 11:35:48;;;;;;;1.63;0.77;;;;;;;;;;4897450;29;20510;-72
2021/05/22 11:38:17;;;;;;;3.77;0.80;;;;;;;;;;4913784;29;20433;-72
2021/05/22 11:43:31;;;;;;;1.30;0.63;;;;;;;;;;4914194;29;20496;-72
2021/05/22 11:45:57;;;;;;;3.57;0.80;;;;;;;;;;4914385;29;20425;-72
2021/05/22 11:48:36;;;;;;;1.67;0.70;;;;;;;;;;4898695;29;20429;-73
2021/05/22 11:51:14;;;;;;;1.00;0.63;;;;;;;;;;4914269;29;20531;-72
2021/05/22 11:53:41;;;;;;;3.20;0.60;;;;;;;;;;4914371;29;20428;-73
2021/05/22 11:59:13;;;;;;;1.07;0.87;;;;;;;;;;4914250;28;20519;-72
2021/05/22 12:01:43;;;;;;;1.60;0.70;;;;;;;;;;4898408;29;20449;-73
2021/05/22 12:04:10;;;;;;;2.20;1.17;;;;;;;;;;4914055;29;20917;-72
2021/05/22 12:06:40;;;;;;;3.50;0.70;;;;;;;;;;4936742;29;20436;-72
2021/05/22 12:09:13;;;;;;;1.70;0.80;;;;;;;;;;4954479;29;20424;-72
2021/05/22 12:14:44;;;;;;;2.10;0.77;;;;;;;;;;4955871;28;20414;-72
2021/05/22 12:17:12;;;;;;;3.03;0.90;;;;;;;;;;4958139;29;20411;-72
2021/05/22 12:19:39;;;;;;;2.80;0.80;;;;;;;;;;4957863;29;20502;-73
2021/05/22 12:22:05;;;;;;;2.33;0.70;;;;;;;;;;4957999;29;20447;-73
2021/05/22 12:24:31;;;;;;;1.23;0.50;;;;;;;;;;4957886;29;20419;-72
2021/05/22 12:30:01;;;;;;;1.60;0.70;;;;;;;;;;4957841;29;20434;-71
2021/05/22 12:32:27;;;;;;;3.10;0.60;;;;;;;;;;4940629;29;20530;-72
2021/05/22 12:34:59;;;;;;;1.70;1.03;;;;;;;;;;4957782;29;20824;-72
2021/05/22 12:37:26;;;;;;;1.83;1.40;;;;;;;;;;4940608;29;20438;-73
2021/05/22 12:39:56;;;;;;;1.07;0.90;;;;;;;;;;4940753;29;20569;-73
2021/05/22 12:45:28;;;;;;;1.90;0.70;;;;;;;;;;4957710;29;20415;-72
2021/05/22 12:47:54;;;;;;;1.27;1.17;;;;;;;;;;4957718;29;20498;-73
2021/05/22 12:50:27;;;;;;;2.60;0.87;;;;;;;;;;4957345;29;20416;-72
2021/05/22 12:52:54;;;;;;;2.03;1.13;;;;;;;;;;4957555;29;20514;-73
2021/05/22 12:55:50;;;;;;;0.90;0.60;;;;;;;;;;4957469;29;20423;-72
2021/05/22 13:01:20;;;;;;;2.10;0.90;;;;;;;;;;4957377;29;20426;-73
2021/05/22 13:03:51;;;;;;;1.70;0.60;;;;;;;;;;4940481;29;20454;-73
2021/05/22 13:06:30;;;;;;;2.93;0.87;;;;;;;;;;4957212;29;20946;-73
2021/05/22 13:09:08;;;;;;;1.03;0.63;;;;;;;;;;4957246;29;20479;-74
2021/05/22 13:11:34;;;;;;;1.87;0.93;;;;;;;;;;4957239;29;20415;-74
2021/05/22 13:14:04;;;;;;;2.17;0.97;;;;;;;;;;4957135;29;20463;-73
2021/05/22 13:16:30;;;;;;;1.73;0.80;;;;;;;;;;4957213;29;20802;-73
2021/05/22 13:18:57;;;;;;;2.53;0.70;;;;;;;;;;4956741;29;20498;-73
2021/05/22 13:21:31;;;;;;;2.20;0.93;;;;;;;;;;4957073;29;20427;-72
2021/05/22 13:23:57;;;;;;;2.53;0.50;;;;;;;;;;4940106;29;20436;-73
2021/05/22 13:26:29;;;;;;;0.97;0.40;;;;;;;;;;4956606;28;20795;-73
2021/05/22 13:28:57;;;;;;;1.43;0.60;;;;;;;;;;4956720;29;20807;-73
2021/05/22 13:31:26;;;;;;;2.90;0.60;;;;;;;;;;4956773;29;20431;-73
2021/05/22 13:33:55;;;;;;;1.30;0.90;;;;;;;;;;4956848;29;20427;-72
2021/05/22 13:36:21;;;;;;;2.63;0.70;;;;;;;;;;4956716;29;20415;-72
2021/05/22 13:38:47;;;;;;;3.60;0.50;;;;;;;;;;4956486;29;20447;-72
2021/05/22 13:41:14;;;;;;;2.90;0.50;;;;;;;;;;4956914;29;20496;-72
2021/05/22 13:43:41;;;;;;;2.03;0.60;;;;;;;;;;4956461;29;20462;-73
2021/05/22 13:46:08;;;;;;;2.23;0.80;;;;;;;;;;4956778;29;20427;-73
2021/05/22 13:48:34;;;;;;;2.43;0.80;;;;;;;;;;4939137;29;20439;-72
2021/05/22 13:51:00;;;;;;;2.50;0.73;;;;;;;;;;4956392;29;20423;-72
2021/05/22 13:53:26;;;;;;;2.70;0.50;;;;;;;;;;4956286;29;20491;-72
2021/05/22 13:55:52;;;;;;;1.70;0.60;;;;;;;;;;4956323;29;20499;-72
2021/05/22 14:01:22;;;;;;;3.70;1.27;;;;;;;;;;4955857;29;20600;-71
2021/05/22 14:03:49;;;;;;;3.47;0.80;;;;;;;;;;4955691;29;20419;-73
2021/05/22 14:06:15;;;;;;;1.93;0.60;;;;;;;;;;4955967;29;20541;-71
2021/05/22 14:08:41;;;;;;;6.80;1.50;;;;;;;;;;4955560;29;20415;-72
2021/05/22 14:11:07;;;;;;;2.87;0.73;;;;;;;;;;4955663;29;20478;-72
2021/05/22 14:16:37;;;;;;;1.40;0.50;;;;;;;;;;4955631;29;20502;-71
2021/05/22 14:19:04;;;;;;;0.87;0.70;;;;;;;;;;4955096;29;20451;-71
2021/05/22 14:21:29;;;;;;;2.80;0.90;;;;;;;;;;4955334;29;20431;-71
2021/05/22 14:23:58;;;;;;;0.90;0.60;;;;;;;;;;4955181;29;20412;-71
2021/05/22 14:32:12;;;;;;;0.87;0.40;;;;;;;;;;4955206;29;20746;-72
2021/05/22 14:34:38;;;;;;;2.30;1.00;;;;;;;;;;4955280;29;20411;-71
2021/05/22 14:37:04;;;;;;;3.60;0.90;;;;;;;;;;4954958;28;20559;-72
2021/05/22 14:39:30;;;;;;;4.50;0.70;;;;;;;;;;4955309;29;20458;-71
2021/05/22 14:41:56;;;;;;;1.07;0.60;;;;;;;;;;4955064;29;20419;-72
2021/05/22 14:44:22;;;;;;;1.53;0.70;;;;;;;;;;4954867;29;20412;-71
2021/05/22 14:46:48;;;;;;;0.60;0.40;;;;;;;;;;4954788;29;20475;-71
2021/05/22 14:49:14;;;;;;;3.67;0.90;;;;;;;;;;4954643;29;20753;-72
2021/05/22 14:51:40;;;;;;;2.50;1.17;;;;;;;;;;4954796;29;20411;-72
2021/05/22 14:54:06;;;;;;;1.67;0.83;;;;;;;;;;4953833;29;20416;-72
2021/05/22 14:56:32;;;;;;;5.47;0.77;;;;;;;;;;4954408;29;20418;-71
2021/05/22 15:02:02;;;;;;;2.10;0.67;;;;;;;;;;4954411;29;20422;-72
2021/05/22 15:04:28;;;;;;;1.70;0.63;;;;;;;;;;4953868;29;20467;-71
2021/05/22 15:06:54;;;;;;;0.73;0.60;;;;;;;;;;4954526;29;20426;-74
2021/05/22 15:09:20;;;;;;;1.33;0.77;;;;;;;;;;4954114;29;20510;-74
2021/05/22 15:11:46;;;;;;;4.23;1.67;;;;;;;;;;4954219;29;20427;-73
2021/05/22 15:17:16;;;;;;;1.60;0.60;;;;;;;;;;4954239;29;20533;-72
2021/05/22 15:19:42;;;;;;;3.47;2.63;;;;;;;;;;4953826;29;20518;-75
2021/05/22 15:22:08;;;;;;;1.10;0.77;;;;;;;;;;4953805;29;20797;-73
2021/05/22 15:24:34;;;;;;;3.30;1.07;;;;;;;;;;4954238;29;20428;-74
2021/05/22 15:27:00;;;;;;;1.90;0.60;;;;;;;;;;4953845;29;20453;-73
2021/05/22 15:29:26;;;;;;;2.23;0.70;;;;;;;;;;4936830;29;20439;-74
2021/05/22 15:31:53;;;;;;;1.53;0.60;;;;;;;;;;4953996;29;20846;-74
2021/05/22 15:34:23;;;;;;;1.00;0.90;;;;;;;;;;4953923;29;20903;-74
2021/05/22 15:36:49;;;;;;;1.87;0.43;;;;;;;;;;4936583;29;20435;-74
2021/05/22 15:39:15;;;;;;;3.30;1.23;;;;;;;;;;4953852;29;20977;-73
2021/05/22 15:41:41;;;;;;;1.63;0.97;;;;;;;;;;4953761;29;20823;-73
2021/05/22 15:47:15;;;;;;;2.90;0.70;;;;;;;;;;4953837;29;20963;-73
2021/05/22 15:58:13;;;;;;;1.03;0.83;;;;;;;;;;4957591;29;20423;-71
2021/05/22 16:00:47;;;;;;;1.60;0.67;;;;;;;;;;4957587;29;20506;-73
2021/05/22 16:06:17;;;;;;;0.77;0.60;;;;;;;;;;4916909;29;20894;-74
2021/05/22 16:08:43;;;;;;;1.60;0.43;;;;;;;;;;4901742;29;20440;-71
2021/05/22 16:11:09;;;;;;;2.70;0.87;;;;;;;;;;4936213;29;21000;-73
2021/05/22 16:13:35;;;;;;;1.57;0.77;;;;;;;;;;4958038;29;20427;-73
2021/05/22 16:16:01;;;;;;;4.73;0.80;;;;;;;;;;4957933;29;20467;-72
2021/05/22 16:18:27;;;;;;;0.60;0.53;;;;;;;;;;4957902;29;20862;-72
2021/05/22 16:20:53;;;;;;;1.33;0.70;;;;;;;;;;4957622;29;20570;-71
2021/05/22 16:23:20;;;;;;;0.63;0.50;;;;;;;;;;4957337;29;20482;-72
2021/05/22 16:25:47;;;;;;;4.00;0.63;;;;;;;;;;4957321;29;20431;-72
2021/05/22 16:28:13;;;;;;;1.17;0.70;;;;;;;;;;4957139;29;20474;-73
2021/05/22 16:30:39;;;;;;;1.03;0.50;;;;;;;;;;4957308;29;20422;-72
2021/05/22 16:33:05;;;;;;;1.80;0.70;;;;;;;;;;4957246;29;20482;-72
2021/05/22 16:35:32;;;;;;;1.00;0.30;;;;;;;;;;4939726;29;20490;-72
2021/05/22 16:37:58;;;;;;;1.00;0.43;;;;;;;;;;4956811;29;20418;-71
2021/05/22 16:40:24;;;;;;;2.27;0.93;;;;;;;;;;4939658;29;20581;-73
2021/05/22 16:42:50;;;;;;;1.13;0.60;;;;;;;;;;4956915;29;20465;-72
2021/05/22 16:45:17;;;;;;;1.70;0.70;;;;;;;;;;4956828;29;20786;-72
2021/05/22 16:47:47;;;;;;;2.90;0.80;;;;;;;;;;4956881;29;20408;-72
2021/05/22 16:50:14;;;;;;;1.40;0.87;;;;;;;;;;4956840;29;20431;-73
2021/05/22 16:52:40;;;;;;;1.63;0.80;;;;;;;;;;4957378;29;20442;-74
2021/05/22 16:55:07;;;;;;;0.90;0.70;;;;;;;;;;4957375;29;20809;-73
2021/05/22 16:57:33;;;;;;;2.20;0.57;;;;;;;;;;4956932;29;20416;-75
2021/05/22 16:59:59;;;;;;;1.70;0.40;;;;;;;;;;4956494;28;20451;-72
2021/05/22 17:02:25;;;;;;;1.03;0.40;;;;;;;;;;4957182;29;20414;-73